sensor_id;sensor_type;location;lat;lon;timestamp;P1;durP1;ratioP1;P2;durP2;ratioP2
69213;SDS011;56325;47.030;18.518;2022-07-17T00:00:05;1.23;;;1.23;;
69213;SDS011;56325;47.030;18.518;2022-07-17T00:03:10;1.92;;;1.20;;
69213;SDS011;56325;47.030;18.518;2022-07-17T00:06:17;1.10;;;1.10;;
69213;SDS011;56325;47.030;18.518;2022-07-17T00:09:21;0.95;;;0.95;;
69213;SDS011;56325;47.030;18.518;2022-07-17T00:12:24;2.25;;;0.93;;
69213;SDS011;56325;47.030;18.518;2022-07-17T00:15:27;1.15;;;1.05;;
69213;SDS011;56325;47.030;18.518;2022-07-17T00:18:30;10.60;;;1.33;;
69213;SDS011;56325;47.030;18.518;2022-07-17T00:21:37;1.23;;;0.95;;
69213;SDS011;56325;47.030;18.518;2022-07-17T00:24:40;6.28;;;1.30;;
69213;SDS011;56325;47.030;18.518;2022-07-17T00:27:43;1.35;;;1.25;;
69213;SDS011;56325;47.030;18.518;2022-07-17T00:30:46;1.08;;;1.08;;
69213;SDS011;56325;47.030;18.518;2022-07-17T00:33:50;1.15;;;1.15;;
69213;SDS011;56325;47.030;18.518;2022-07-17T00:36:53;3.17;;;1.00;;
69213;SDS011;56325;47.030;18.518;2022-07-17T00:39:56;1.60;;;1.00;;
69213;SDS011;56325;47.030;18.518;2022-07-17T00:42:59;12.25;;;1.42;;
69213;SDS011;56325;47.030;18.518;2022-07-17T00:46:02;1.30;;;1.12;;
69213;SDS011;56325;47.030;18.518;2022-07-17T00:49:06;1.30;;;1.20;;
69213;SDS011;56325;47.030;18.518;2022-07-17T00:52:10;2.62;;;1.40;;
69213;SDS011;56325;47.030;18.518;2022-07-17T00:55:14;1.00;;;1.00;;
69213;SDS011;56325;47.030;18.518;2022-07-17T00:58:39;2.90;;;1.00;;
69213;SDS011;56325;47.030;18.518;2022-07-17T01:01:43;3.55;;;1.00;;
69213;SDS011;56325;47.030;18.518;2022-07-17T01:04:46;1.12;;;0.90;;
69213;SDS011;56325;47.030;18.518;2022-07-17T01:07:49;4.97;;;0.82;;
69213;SDS011;56325;47.030;18.518;2022-07-17T01:10:53;0.90;;;0.90;;
69213;SDS011;56325;47.030;18.518;2022-07-17T01:13:56;2.72;;;1.30;;
69213;SDS011;56325;47.030;18.518;2022-07-17T01:17:00;0.95;;;0.95;;
69213;SDS011;56325;47.030;18.518;2022-07-17T01:20:04;1.10;;;1.10;;
69213;SDS011;56325;47.030;18.518;2022-07-17T01:23:09;1.83;;;0.95;;
69213;SDS011;56325;47.030;18.518;2022-07-17T01:26:13;1.35;;;1.25;;
69213;SDS011;56325;47.030;18.518;2022-07-17T01:29:17;1.08;;;1.08;;
69213;SDS011;56325;47.030;18.518;2022-07-17T01:32:29;7.75;;;0.98;;
69213;SDS011;56325;47.030;18.518;2022-07-17T01:35:37;3.67;;;0.93;;
69213;SDS011;56325;47.030;18.518;2022-07-17T01:38:40;1.95;;;1.20;;
69213;SDS011;56325;47.030;18.518;2022-07-17T01:41:43;2.25;;;0.98;;
69213;SDS011;56325;47.030;18.518;2022-07-17T01:44:46;3.33;;;1.02;;
69213;SDS011;56325;47.030;18.518;2022-07-17T01:47:50;3.20;;;0.90;;
69213;SDS011;56325;47.030;18.518;2022-07-17T01:50:55;0.88;;;0.88;;
69213;SDS011;56325;47.030;18.518;2022-07-17T01:53:58;1.45;;;0.98;;
69213;SDS011;56325;47.030;18.518;2022-07-17T01:57:01;1.10;;;1.10;;
69213;SDS011;56325;47.030;18.518;2022-07-17T02:00:06;3.22;;;1.10;;
69213;SDS011;56325;47.030;18.518;2022-07-17T02:03:11;1.15;;;0.80;;
69213;SDS011;56325;47.030;18.518;2022-07-17T02:06:14;2.00;;;0.95;;
69213;SDS011;56325;47.030;18.518;2022-07-17T02:09:17;1.17;;;1.02;;
69213;SDS011;56325;47.030;18.518;2022-07-17T02:12:20;2.55;;;1.00;;
69213;SDS011;56325;47.030;18.518;2022-07-17T02:15:23;1.33;;;1.20;;
69213;SDS011;56325;47.030;18.518;2022-07-17T02:18:27;0.98;;;0.80;;
69213;SDS011;56325;47.030;18.518;2022-07-17T02:21:30;1.83;;;0.90;;
69213;SDS011;56325;47.030;18.518;2022-07-17T02:24:33;2.70;;;0.80;;
69213;SDS011;56325;47.030;18.518;2022-07-17T02:27:36;0.73;;;0.73;;
69213;SDS011;56325;47.030;18.518;2022-07-17T02:30:40;0.77;;;0.77;;
69213;SDS011;56325;47.030;18.518;2022-07-17T02:33:43;0.62;;;0.60;;
69213;SDS011;56325;47.030;18.518;2022-07-17T02:36:46;6.43;;;0.80;;
69213;SDS011;56325;47.030;18.518;2022-07-17T02:39:49;1.27;;;0.90;;
69213;SDS011;56325;47.030;18.518;2022-07-17T02:42:55;0.80;;;0.80;;
69213;SDS011;56325;47.030;18.518;2022-07-17T02:45:58;3.62;;;1.00;;
69213;SDS011;56325;47.030;18.518;2022-07-17T02:49:01;2.45;;;1.00;;
69213;SDS011;56325;47.030;18.518;2022-07-17T02:52:04;1.60;;;1.50;;
69213;SDS011;56325;47.030;18.518;2022-07-17T02:55:08;1.10;;;0.77;;
69213;SDS011;56325;47.030;18.518;2022-07-17T02:58:11;0.50;;;0.50;;
69213;SDS011;56325;47.030;18.518;2022-07-17T03:01:14;0.80;;;0.80;;
69213;SDS011;56325;47.030;18.518;2022-07-17T03:04:18;0.80;;;0.80;;
69213;SDS011;56325;47.030;18.518;2022-07-17T03:07:22;1.10;;;1.10;;
69213;SDS011;56325;47.030;18.518;2022-07-17T03:10:24;0.77;;;0.77;;
69213;SDS011;56325;47.030;18.518;2022-07-17T03:13:28;1.00;;;1.00;;
69213;SDS011;56325;47.030;18.518;2022-07-17T03:16:32;2.37;;;1.00;;
69213;SDS011;56325;47.030;18.518;2022-07-17T03:19:35;2.15;;;0.93;;
69213;SDS011;56325;47.030;18.518;2022-07-17T03:22:38;1.27;;;1.00;;
69213;SDS011;56325;47.030;18.518;2022-07-17T03:25:42;1.98;;;1.23;;
69213;SDS011;56325;47.030;18.518;2022-07-17T03:28:45;5.30;;;1.08;;
69213;SDS011;56325;47.030;18.518;2022-07-17T03:31:48;1.83;;;1.67;;
69213;SDS011;56325;47.030;18.518;2022-07-17T03:34:51;2.12;;;1.40;;
69213;SDS011;56325;47.030;18.518;2022-07-17T03:37:54;3.03;;;1.08;;
69213;SDS011;56325;47.030;18.518;2022-07-17T03:40:57;1.25;;;0.90;;
69213;SDS011;56325;47.030;18.518;2022-07-17T03:44:01;1.27;;;1.20;;
69213;SDS011;56325;47.030;18.518;2022-07-17T03:47:04;2.35;;;1.00;;
69213;SDS011;56325;47.030;18.518;2022-07-17T03:50:07;4.10;;;1.12;;
69213;SDS011;56325;47.030;18.518;2022-07-17T03:53:10;0.90;;;0.90;;
69213;SDS011;56325;47.030;18.518;2022-07-17T03:56:13;0.70;;;0.70;;
69213;SDS011;56325;47.030;18.518;2022-07-17T03:59:16;1.87;;;0.95;;
69213;SDS011;56325;47.030;18.518;2022-07-17T04:02:19;2.75;;;1.00;;
69213;SDS011;56325;47.030;18.518;2022-07-17T04:05:23;0.80;;;0.80;;
69213;SDS011;56325;47.030;18.518;2022-07-17T04:08:25;1.95;;;0.90;;
69213;SDS011;56325;47.030;18.518;2022-07-17T04:11:29;1.00;;;1.00;;
69213;SDS011;56325;47.030;18.518;2022-07-17T04:14:32;1.70;;;0.85;;
69213;SDS011;56325;47.030;18.518;2022-07-17T04:17:35;0.80;;;0.80;;
69213;SDS011;56325;47.030;18.518;2022-07-17T04:20:38;0.70;;;0.70;;
69213;SDS011;56325;47.030;18.518;2022-07-17T04:23:43;0.90;;;0.90;;
69213;SDS011;56325;47.030;18.518;2022-07-17T04:26:48;0.95;;;0.95;;
69213;SDS011;56325;47.030;18.518;2022-07-17T04:29:51;0.88;;;0.88;;
69213;SDS011;56325;47.030;18.518;2022-07-17T04:32:54;0.85;;;0.85;;
69213;SDS011;56325;47.030;18.518;2022-07-17T04:35:57;2.10;;;0.93;;
69213;SDS011;56325;47.030;18.518;2022-07-17T04:39:00;1.98;;;0.80;;
69213;SDS011;56325;47.030;18.518;2022-07-17T04:42:03;3.97;;;0.90;;
69213;SDS011;56325;47.030;18.518;2022-07-17T04:45:06;1.58;;;0.80;;
69213;SDS011;56325;47.030;18.518;2022-07-17T04:48:10;0.77;;;0.77;;
69213;SDS011;56325;47.030;18.518;2022-07-17T04:51:13;0.73;;;0.73;;
69213;SDS011;56325;47.030;18.518;2022-07-17T04:54:16;2.20;;;1.10;;
69213;SDS011;56325;47.030;18.518;2022-07-17T04:57:19;1.10;;;0.95;;
69213;SDS011;56325;47.030;18.518;2022-07-17T05:00:22;2.87;;;0.90;;
69213;SDS011;56325;47.030;18.518;2022-07-17T05:03:25;1.33;;;0.95;;
69213;SDS011;56325;47.030;18.518;2022-07-17T05:06:28;0.80;;;0.80;;
69213;SDS011;56325;47.030;18.518;2022-07-17T05:09:31;1.10;;;0.98;;
69213;SDS011;56325;47.030;18.518;2022-07-17T05:12:34;0.70;;;0.70;;
69213;SDS011;56325;47.030;18.518;2022-07-17T05:15:38;2.35;;;0.70;;
69213;SDS011;56325;47.030;18.518;2022-07-17T05:18:42;0.80;;;0.80;;
69213;SDS011;56325;47.030;18.518;2022-07-17T05:21:45;0.80;;;0.80;;
69213;SDS011;56325;47.030;18.518;2022-07-17T05:24:48;0.98;;;0.98;;
69213;SDS011;56325;47.030;18.518;2022-07-17T05:27:51;0.70;;;0.70;;
69213;SDS011;56325;47.030;18.518;2022-07-17T05:30:58;7.22;;;0.90;;
69213;SDS011;56325;47.030;18.518;2022-07-17T05:34:01;0.75;;;0.73;;
69213;SDS011;56325;47.030;18.518;2022-07-17T05:37:04;0.73;;;0.73;;
69213;SDS011;56325;47.030;18.518;2022-07-17T05:40:07;3.35;;;0.75;;
69213;SDS011;56325;47.030;18.518;2022-07-17T05:43:11;0.65;;;0.65;;
69213;SDS011;56325;47.030;18.518;2022-07-17T05:46:14;2.92;;;0.68;;
69213;SDS011;56325;47.030;18.518;2022-07-17T05:49:17;0.77;;;0.75;;
69213;SDS011;56325;47.030;18.518;2022-07-17T05:52:20;4.03;;;0.70;;
69213;SDS011;56325;47.030;18.518;2022-07-17T05:55:23;0.60;;;0.60;;
69213;SDS011;56325;47.030;18.518;2022-07-17T05:58:26;2.90;;;0.90;;
69213;SDS011;56325;47.030;18.518;2022-07-17T06:01:29;2.17;;;0.70;;
69213;SDS011;56325;47.030;18.518;2022-07-17T06:04:34;0.70;;;0.70;;
69213;SDS011;56325;47.030;18.518;2022-07-17T06:07:37;1.98;;;0.65;;
69213;SDS011;56325;47.030;18.518;2022-07-17T06:10:40;1.65;;;0.60;;
69213;SDS011;56325;47.030;18.518;2022-07-17T06:13:43;2.05;;;0.70;;
69213;SDS011;56325;47.030;18.518;2022-07-17T06:16:46;11.80;;;1.12;;
69213;SDS011;56325;47.030;18.518;2022-07-17T06:19:49;1.02;;;0.70;;
69213;SDS011;56325;47.030;18.518;2022-07-17T06:22:54;0.60;;;0.60;;
69213;SDS011;56325;47.030;18.518;2022-07-17T06:25:57;0.60;;;0.60;;
69213;SDS011;56325;47.030;18.518;2022-07-17T06:29:00;0.70;;;0.70;;
69213;SDS011;56325;47.030;18.518;2022-07-17T06:32:03;0.60;;;0.60;;
69213;SDS011;56325;47.030;18.518;2022-07-17T06:35:07;1.77;;;0.80;;
69213;SDS011;56325;47.030;18.518;2022-07-17T06:38:11;0.82;;;0.62;;
69213;SDS011;56325;47.030;18.518;2022-07-17T06:41:14;0.80;;;0.80;;
69213;SDS011;56325;47.030;18.518;2022-07-17T06:44:17;2.17;;;0.70;;
69213;SDS011;56325;47.030;18.518;2022-07-17T06:47:20;0.57;;;0.55;;
69213;SDS011;56325;47.030;18.518;2022-07-17T06:50:23;0.40;;;0.40;;
69213;SDS011;56325;47.030;18.518;2022-07-17T06:53:26;2.62;;;0.70;;
69213;SDS011;56325;47.030;18.518;2022-07-17T06:56:29;0.85;;;0.60;;
69213;SDS011;56325;47.030;18.518;2022-07-17T06:59:33;0.98;;;0.50;;
69213;SDS011;56325;47.030;18.518;2022-07-17T07:02:36;3.97;;;0.50;;
69213;SDS011;56325;47.030;18.518;2022-07-17T07:05:40;8.40;;;0.60;;
69213;SDS011;56325;47.030;18.518;2022-07-17T07:08:43;0.93;;;0.70;;
69213;SDS011;56325;47.030;18.518;2022-07-17T07:11:46;4.05;;;0.80;;
69213;SDS011;56325;47.030;18.518;2022-07-17T07:14:49;4.10;;;0.65;;
69213;SDS011;56325;47.030;18.518;2022-07-17T07:17:52;0.50;;;0.50;;
69213;SDS011;56325;47.030;18.518;2022-07-17T07:20:55;0.70;;;0.70;;
69213;SDS011;56325;47.030;18.518;2022-07-17T07:23:58;0.75;;;0.50;;
69213;SDS011;56325;47.030;18.518;2022-07-17T07:27:02;3.40;;;0.80;;
69213;SDS011;56325;47.030;18.518;2022-07-17T07:30:06;0.60;;;0.60;;
69213;SDS011;56325;47.030;18.518;2022-07-17T07:33:13;0.60;;;0.60;;
69213;SDS011;56325;47.030;18.518;2022-07-17T07:36:16;1.70;;;0.40;;
69213;SDS011;56325;47.030;18.518;2022-07-17T07:39:19;0.95;;;0.70;;
69213;SDS011;56325;47.030;18.518;2022-07-17T07:42:23;5.95;;;3.53;;
69213;SDS011;56325;47.030;18.518;2022-07-17T07:45:26;13.55;;;0.77;;
69213;SDS011;56325;47.030;18.518;2022-07-17T07:48:29;0.52;;;0.52;;
69213;SDS011;56325;47.030;18.518;2022-07-17T07:51:32;2.05;;;0.62;;
69213;SDS011;56325;47.030;18.518;2022-07-17T07:54:55;1.25;;;0.65;;
69213;SDS011;56325;47.030;18.518;2022-07-17T07:58:06;1.83;;;0.75;;
69213;SDS011;56325;47.030;18.518;2022-07-17T08:01:11;0.45;;;0.45;;
69213;SDS011;56325;47.030;18.518;2022-07-17T08:04:14;1.10;;;0.73;;
69213;SDS011;56325;47.030;18.518;2022-07-17T08:07:18;2.00;;;1.05;;
69213;SDS011;56325;47.030;18.518;2022-07-17T08:10:21;0.93;;;0.57;;
69213;SDS011;56325;47.030;18.518;2022-07-17T08:13:24;1.55;;;0.62;;
69213;SDS011;56325;47.030;18.518;2022-07-17T08:16:27;3.03;;;0.52;;
69213;SDS011;56325;47.030;18.518;2022-07-17T08:19:30;1.95;;;0.62;;
69213;SDS011;56325;47.030;18.518;2022-07-17T08:22:34;1.45;;;0.70;;
69213;SDS011;56325;47.030;18.518;2022-07-17T08:25:57;1.92;;;0.60;;
69213;SDS011;56325;47.030;18.518;2022-07-17T08:29:01;1.10;;;0.55;;
69213;SDS011;56325;47.030;18.518;2022-07-17T08:32:05;1.83;;;0.68;;
69213;SDS011;56325;47.030;18.518;2022-07-17T08:35:09;0.98;;;0.45;;
69213;SDS011;56325;47.030;18.518;2022-07-17T08:38:13;0.40;;;0.40;;
69213;SDS011;56325;47.030;18.518;2022-07-17T08:41:17;2.45;;;0.60;;
69213;SDS011;56325;47.030;18.518;2022-07-17T08:44:23;3.05;;;0.65;;
69213;SDS011;56325;47.030;18.518;2022-07-17T08:47:27;0.85;;;0.40;;
69213;SDS011;56325;47.030;18.518;2022-07-17T08:50:31;0.40;;;0.40;;
69213;SDS011;56325;47.030;18.518;2022-07-17T08:53:37;0.43;;;0.43;;
69213;SDS011;56325;47.030;18.518;2022-07-17T08:56:40;0.62;;;0.62;;
69213;SDS011;56325;47.030;18.518;2022-07-17T08:59:46;1.85;;;0.57;;
69213;SDS011;56325;47.030;18.518;2022-07-17T09:02:54;0.50;;;0.50;;
69213;SDS011;56325;47.030;18.518;2022-07-17T09:06:05;0.40;;;0.40;;
69213;SDS011;56325;47.030;18.518;2022-07-17T09:09:19;3.03;;;0.50;;
69213;SDS011;56325;47.030;18.518;2022-07-17T09:12:26;1.17;;;0.47;;
69213;SDS011;56325;47.030;18.518;2022-07-17T09:15:32;4.95;;;0.60;;
69213;SDS011;56325;47.030;18.518;2022-07-17T09:18:43;2.37;;;0.55;;
69213;SDS011;56325;47.030;18.518;2022-07-17T09:21:46;0.98;;;0.80;;
69213;SDS011;56325;47.030;18.518;2022-07-17T09:24:54;2.22;;;1.08;;
69213;SDS011;56325;47.030;18.518;2022-07-17T09:28:00;0.95;;;0.90;;
69213;SDS011;56325;47.030;18.518;2022-07-17T09:31:05;1.05;;;0.95;;
69213;SDS011;56325;47.030;18.518;2022-07-17T09:34:17;2.45;;;0.80;;
69213;SDS011;56325;47.030;18.518;2022-07-17T09:37:22;5.03;;;0.70;;
69213;SDS011;56325;47.030;18.518;2022-07-17T09:40:26;1.42;;;0.50;;
69213;SDS011;56325;47.030;18.518;2022-07-17T09:43:50;0.57;;;0.57;;
69213;SDS011;56325;47.030;18.518;2022-07-17T09:46:59;14.02;;;1.00;;
69213;SDS011;56325;47.030;18.518;2022-07-17T09:50:06;0.85;;;0.55;;
69213;SDS011;56325;47.030;18.518;2022-07-17T09:53:10;0.30;;;0.30;;
69213;SDS011;56325;47.030;18.518;2022-07-17T09:56:15;5.05;;;0.70;;
69213;SDS011;56325;47.030;18.518;2022-07-17T09:59:20;2.55;;;0.62;;
69213;SDS011;56325;47.030;18.518;2022-07-17T10:02:25;1.17;;;0.55;;
69213;SDS011;56325;47.030;18.518;2022-07-17T10:05:28;0.47;;;0.45;;
69213;SDS011;56325;47.030;18.518;2022-07-17T14:56:21;1.17;;;0.60;;
69213;SDS011;56325;47.030;18.518;2022-07-17T14:59:25;0.40;;;0.40;;
69213;SDS011;56325;47.030;18.518;2022-07-17T15:02:28;0.80;;;0.80;;
69213;SDS011;56325;47.030;18.518;2022-07-17T15:05:32;0.50;;;0.50;;
69213;SDS011;56325;47.030;18.518;2022-07-17T15:08:35;0.50;;;0.50;;
69213;SDS011;56325;47.030;18.518;2022-07-17T15:11:39;0.43;;;0.43;;
69213;SDS011;56325;47.030;18.518;2022-07-17T15:14:45;0.50;;;0.50;;
69213;SDS011;56325;47.030;18.518;2022-07-17T15:17:54;0.55;;;0.55;;
69213;SDS011;56325;47.030;18.518;2022-07-17T15:20:57;3.30;;;0.70;;
69213;SDS011;56325;47.030;18.518;2022-07-17T15:24:01;0.50;;;0.45;;
69213;SDS011;56325;47.030;18.518;2022-07-17T15:27:03;6.10;;;0.90;;
69213;SDS011;56325;47.030;18.518;2022-07-17T15:30:07;0.73;;;0.50;;
69213;SDS011;56325;47.030;18.518;2022-07-17T15:33:10;0.80;;;0.80;;
69213;SDS011;56325;47.030;18.518;2022-07-17T15:36:14;0.45;;;0.43;;
69213;SDS011;56325;47.030;18.518;2022-07-17T15:39:30;0.70;;;0.70;;
69213;SDS011;56325;47.030;18.518;2022-07-17T15:42:42;1.55;;;0.80;;
69213;SDS011;56325;47.030;18.518;2022-07-17T15:46:13;1.02;;;0.50;;
69213;SDS011;56325;47.030;18.518;2022-07-17T15:49:16;0.60;;;0.60;;
69213;SDS011;56325;47.030;18.518;2022-07-17T15:52:20;0.57;;;0.57;;
69213;SDS011;56325;47.030;18.518;2022-07-17T15:55:23;3.15;;;0.70;;
69213;SDS011;56325;47.030;18.518;2022-07-17T15:58:26;9.88;;;0.90;;
69213;SDS011;56325;47.030;18.518;2022-07-17T16:01:30;1.58;;;0.60;;
69213;SDS011;56325;47.030;18.518;2022-07-17T16:04:33;1.90;;;0.60;;
69213;SDS011;56325;47.030;18.518;2022-07-17T16:07:36;2.97;;;0.60;;
69213;SDS011;56325;47.030;18.518;2022-07-17T16:10:39;3.95;;;0.80;;
69213;SDS011;56325;47.030;18.518;2022-07-17T16:13:42;2.95;;;0.70;;
69213;SDS011;56325;47.030;18.518;2022-07-17T16:16:45;7.18;;;1.23;;
69213;SDS011;56325;47.030;18.518;2022-07-17T16:19:48;2.08;;;0.80;;
69213;SDS011;56325;47.030;18.518;2022-07-17T16:22:52;0.73;;;0.60;;
69213;SDS011;56325;47.030;18.518;2022-07-17T16:25:54;0.50;;;0.50;;
69213;SDS011;56325;47.030;18.518;2022-07-17T16:28:58;3.50;;;0.70;;
69213;SDS011;56325;47.030;18.518;2022-07-17T16:32:00;1.58;;;0.85;;
69213;SDS011;56325;47.030;18.518;2022-07-17T16:35:04;6.57;;;0.62;;
69213;SDS011;56325;47.030;18.518;2022-07-17T16:38:07;3.83;;;1.00;;
69213;SDS011;56325;47.030;18.518;2022-07-17T16:41:11;0.90;;;0.90;;
69213;SDS011;56325;47.030;18.518;2022-07-17T16:44:14;4.45;;;1.10;;
69213;SDS011;56325;47.030;18.518;2022-07-17T16:54:10;9.10;;;1.83;;
69213;SDS011;56325;47.030;18.518;2022-07-17T16:57:13;12.02;;;1.48;;
69213;SDS011;56325;47.030;18.518;2022-07-17T17:00:16;18.40;;;1.10;;
69213;SDS011;56325;47.030;18.518;2022-07-17T17:03:19;17.17;;;1.23;;
69213;SDS011;56325;47.030;18.518;2022-07-17T17:06:26;8.93;;;0.90;;
69213;SDS011;56325;47.030;18.518;2022-07-17T17:09:30;2.65;;;0.80;;
69213;SDS011;56325;47.030;18.518;2022-07-17T17:12:34;15.70;;;2.72;;
69213;SDS011;56325;47.030;18.518;2022-07-17T17:15:43;61.92;;;3.20;;
69213;SDS011;56325;47.030;18.518;2022-07-17T17:23:38;18.73;;;1.55;;
69213;SDS011;56325;47.030;18.518;2022-07-17T17:26:41;2.97;;;1.35;;
69213;SDS011;56325;47.030;18.518;2022-07-17T17:30:04;4.62;;;0.85;;
69213;SDS011;56325;47.030;18.518;2022-07-17T17:33:08;6.57;;;0.98;;
69213;SDS011;56325;47.030;18.518;2022-07-17T17:40:13;13.88;;;1.23;;
69213;SDS011;56325;47.030;18.518;2022-07-17T17:43:20;5.87;;;1.00;;
69213;SDS011;56325;47.030;18.518;2022-07-17T17:46:34;5.90;;;0.90;;
69213;SDS011;56325;47.030;18.518;2022-07-17T17:49:37;5.90;;;0.98;;
69213;SDS011;56325;47.030;18.518;2022-07-17T17:58:02;11.80;;;1.33;;
69213;SDS011;56325;47.030;18.518;2022-07-17T18:01:09;26.95;;;2.78;;
69213;SDS011;56325;47.030;18.518;2022-07-17T18:04:13;9.65;;;1.15;;
69213;SDS011;56325;47.030;18.518;2022-07-17T18:07:16;7.37;;;1.10;;
69213;SDS011;56325;47.030;18.518;2022-07-17T18:10:23;6.62;;;0.70;;
69213;SDS011;56325;47.030;18.518;2022-07-17T18:13:27;9.73;;;0.90;;
69213;SDS011;56325;47.030;18.518;2022-07-17T18:16:31;7.12;;;0.90;;
69213;SDS011;56325;47.030;18.518;2022-07-17T18:19:34;4.62;;;0.90;;
69213;SDS011;56325;47.030;18.518;2022-07-17T18:26:40;2.37;;;0.80;;
69213;SDS011;56325;47.030;18.518;2022-07-17T18:29:43;2.35;;;0.80;;
69213;SDS011;56325;47.030;18.518;2022-07-17T18:32:47;8.95;;;1.40;;
69213;SDS011;56325;47.030;18.518;2022-07-17T18:35:49;31.33;;;1.67;;
69213;SDS011;56325;47.030;18.518;2022-07-17T18:38:53;12.57;;;1.62;;
69213;SDS011;56325;47.030;18.518;2022-07-17T18:41:59;7.47;;;1.02;;
69213;SDS011;56325;47.030;18.518;2022-07-17T18:45:03;5.47;;;0.88;;
69213;SDS011;56325;47.030;18.518;2022-07-17T18:48:08;11.50;;;0.90;;
69213;SDS011;56325;47.030;18.518;2022-07-17T18:57:45;1.42;;;0.70;;
69213;SDS011;56325;47.030;18.518;2022-07-17T19:00:48;6.28;;;0.90;;
69213;SDS011;56325;47.030;18.518;2022-07-17T19:03:51;21.62;;;1.30;;
69213;SDS011;56325;47.030;18.518;2022-07-17T19:06:54;13.80;;;1.85;;
69213;SDS011;56325;47.030;18.518;2022-07-17T19:09:57;7.87;;;1.40;;
69213;SDS011;56325;47.030;18.518;2022-07-17T19:13:04;12.30;;;1.65;;
69213;SDS011;56325;47.030;18.518;2022-07-17T19:16:08;7.00;;;1.23;;
69213;SDS011;56325;47.030;18.518;2022-07-17T19:19:11;16.92;;;1.52;;
69213;SDS011;56325;47.030;18.518;2022-07-17T19:22:14;13.48;;;1.65;;
69213;SDS011;56325;47.030;18.518;2022-07-17T19:25:19;7.07;;;1.45;;
69213;SDS011;56325;47.030;18.518;2022-07-17T19:28:33;8.88;;;1.50;;
69213;SDS011;56325;47.030;18.518;2022-07-17T19:31:36;10.43;;;1.30;;
69213;SDS011;56325;47.030;18.518;2022-07-17T19:34:39;3.83;;;1.10;;
69213;SDS011;56325;47.030;18.518;2022-07-17T19:37:44;7.22;;;1.10;;
69213;SDS011;56325;47.030;18.518;2022-07-17T19:40:50;4.43;;;1.20;;
69213;SDS011;56325;47.030;18.518;2022-07-17T19:43:53;5.45;;;1.15;;
69213;SDS011;56325;47.030;18.518;2022-07-17T19:46:57;6.05;;;3.00;;
69213;SDS011;56325;47.030;18.518;2022-07-17T19:50:00;8.80;;;3.25;;
69213;SDS011;56325;47.030;18.518;2022-07-17T19:53:04;3.28;;;2.25;;
69213;SDS011;56325;47.030;18.518;2022-07-17T19:56:07;6.65;;;1.90;;
69213;SDS011;56325;47.030;18.518;2022-07-17T19:59:19;4.32;;;1.58;;
69213;SDS011;56325;47.030;18.518;2022-07-17T20:02:23;2.80;;;1.50;;
69213;SDS011;56325;47.030;18.518;2022-07-17T20:05:28;4.55;;;2.15;;
69213;SDS011;56325;47.030;18.518;2022-07-17T20:08:32;6.90;;;2.72;;
69213;SDS011;56325;47.030;18.518;2022-07-17T20:11:35;6.35;;;1.95;;
69213;SDS011;56325;47.030;18.518;2022-07-17T20:14:38;5.65;;;1.67;;
69213;SDS011;56325;47.030;18.518;2022-07-17T20:17:42;1.90;;;1.40;;
69213;SDS011;56325;47.030;18.518;2022-07-17T20:20:45;3.65;;;1.50;;
69213;SDS011;56325;47.030;18.518;2022-07-17T20:23:49;6.15;;;1.15;;
69213;SDS011;56325;47.030;18.518;2022-07-17T20:26:56;6.45;;;1.87;;
69213;SDS011;56325;47.030;18.518;2022-07-17T20:29:59;4.05;;;1.30;;
69213;SDS011;56325;47.030;18.518;2022-07-17T20:33:02;5.72;;;1.30;;
69213;SDS011;56325;47.030;18.518;2022-07-17T20:36:05;3.58;;;0.73;;
69213;SDS011;56325;47.030;18.518;2022-07-17T20:39:09;2.25;;;0.80;;
69213;SDS011;56325;47.030;18.518;2022-07-17T20:42:12;1.65;;;0.95;;
69213;SDS011;56325;47.030;18.518;2022-07-17T20:45:14;5.43;;;1.40;;
69213;SDS011;56325;47.030;18.518;2022-07-17T20:48:18;4.20;;;1.12;;
69213;SDS011;56325;47.030;18.518;2022-07-17T20:51:21;6.85;;;0.95;;
69213;SDS011;56325;47.030;18.518;2022-07-17T20:54:24;2.53;;;0.93;;
69213;SDS011;56325;47.030;18.518;2022-07-17T20:57:27;1.05;;;1.05;;
69213;SDS011;56325;47.030;18.518;2022-07-17T21:00:30;2.62;;;0.95;;
69213;SDS011;56325;47.030;18.518;2022-07-17T21:03:35;1.80;;;0.93;;
69213;SDS011;56325;47.030;18.518;2022-07-17T21:06:41;2.12;;;0.90;;
69213;SDS011;56325;47.030;18.518;2022-07-17T21:09:46;6.72;;;1.12;;
69213;SDS011;56325;47.030;18.518;2022-07-17T21:12:49;5.60;;;0.90;;
69213;SDS011;56325;47.030;18.518;2022-07-17T21:15:53;2.75;;;0.73;;
69213;SDS011;56325;47.030;18.518;2022-07-17T21:18:57;3.12;;;1.20;;
69213;SDS011;56325;47.030;18.518;2022-07-17T21:22:00;1.48;;;1.37;;
69213;SDS011;56325;47.030;18.518;2022-07-17T21:25:03;1.30;;;1.20;;
69213;SDS011;56325;47.030;18.518;2022-07-17T21:28:07;1.92;;;1.10;;
69213;SDS011;56325;47.030;18.518;2022-07-17T21:31:10;1.10;;;1.10;;
69213;SDS011;56325;47.030;18.518;2022-07-17T21:34:13;5.60;;;0.93;;
69213;SDS011;56325;47.030;18.518;2022-07-17T21:37:19;1.00;;;0.90;;
69213;SDS011;56325;47.030;18.518;2022-07-17T21:40:24;3.90;;;1.00;;
69213;SDS011;56325;47.030;18.518;2022-07-17T21:43:28;1.08;;;0.70;;
69213;SDS011;56325;47.030;18.518;2022-07-17T21:46:32;4.65;;;1.15;;
69213;SDS011;56325;47.030;18.518;2022-07-17T21:49:37;4.50;;;1.20;;
69213;SDS011;56325;47.030;18.518;2022-07-17T21:52:39;5.37;;;0.90;;
69213;SDS011;56325;47.030;18.518;2022-07-17T21:55:43;0.70;;;0.70;;
69213;SDS011;56325;47.030;18.518;2022-07-17T21:58:46;1.10;;;1.00;;
69213;SDS011;56325;47.030;18.518;2022-07-17T22:01:49;1.10;;;1.02;;
69213;SDS011;56325;47.030;18.518;2022-07-17T22:04:55;0.85;;;0.70;;
69213;SDS011;56325;47.030;18.518;2022-07-17T22:07:58;5.87;;;0.90;;
69213;SDS011;56325;47.030;18.518;2022-07-17T22:11:02;4.85;;;0.80;;
69213;SDS011;56325;47.030;18.518;2022-07-17T22:14:06;1.48;;;0.88;;
69213;SDS011;56325;47.030;18.518;2022-07-17T22:17:09;1.15;;;1.05;;
69213;SDS011;56325;47.030;18.518;2022-07-17T22:20:15;1.00;;;1.00;;
69213;SDS011;56325;47.030;18.518;2022-07-17T22:23:19;0.75;;;0.73;;
69213;SDS011;56325;47.030;18.518;2022-07-17T22:26:22;4.80;;;0.82;;
69213;SDS011;56325;47.030;18.518;2022-07-17T22:29:25;0.75;;;0.68;;
69213;SDS011;56325;47.030;18.518;2022-07-17T22:32:30;1.10;;;0.70;;
69213;SDS011;56325;47.030;18.518;2022-07-17T22:35:33;1.17;;;0.80;;
69213;SDS011;56325;47.030;18.518;2022-07-17T22:38:36;2.92;;;0.70;;
69213;SDS011;56325;47.030;18.518;2022-07-17T22:41:39;0.90;;;0.70;;
69213;SDS011;56325;47.030;18.518;2022-07-17T22:44:42;3.83;;;0.80;;
69213;SDS011;56325;47.030;18.518;2022-07-17T22:47:45;4.12;;;0.95;;
69213;SDS011;56325;47.030;18.518;2022-07-17T22:50:48;2.30;;;1.15;;
69213;SDS011;56325;47.030;18.518;2022-07-17T22:57:10;4.25;;;0.98;;
69213;SDS011;56325;47.030;18.518;2022-07-17T23:00:14;1.27;;;1.15;;
69213;SDS011;56325;47.030;18.518;2022-07-17T23:03:17;5.70;;;1.20;;
69213;SDS011;56325;47.030;18.518;2022-07-17T23:09:39;2.62;;;1.10;;
69213;SDS011;56325;47.030;18.518;2022-07-17T23:12:43;3.70;;;1.10;;
69213;SDS011;56325;47.030;18.518;2022-07-17T23:15:45;7.47;;;1.00;;
69213;SDS011;56325;47.030;18.518;2022-07-17T23:18:49;2.47;;;1.05;;
69213;SDS011;56325;47.030;18.518;2022-07-17T23:21:51;4.05;;;1.20;;
69213;SDS011;56325;47.030;18.518;2022-07-17T23:24:55;3.12;;;0.90;;
69213;SDS011;56325;47.030;18.518;2022-07-17T23:28:00;4.00;;;0.90;;
69213;SDS011;56325;47.030;18.518;2022-07-17T23:31:04;4.95;;;0.90;;
69213;SDS011;56325;47.030;18.518;2022-07-17T23:34:08;2.55;;;1.00;;
69213;SDS011;56325;47.030;18.518;2022-07-17T23:37:11;1.10;;;0.70;;